createdAt,value
2023-03-02T00:02:18.302Z,75.60
2023-03-02T00:04:52.173Z,75.60
2023-03-02T00:07:27.580Z,75.90
2023-03-02T00:09:55.351Z,76.00
2023-03-02T00:12:22.234Z,76.00
2023-03-02T00:14:49.083Z,76.20
2023-03-02T00:17:15.889Z,76.10
2023-03-02T00:19:44.923Z,76.20
2023-03-02T00:22:11.827Z,76.10
2023-03-02T00:24:38.793Z,76.30
2023-03-02T00:27:05.680Z,76.20
2023-03-02T00:29:32.497Z,77.00
2023-03-02T00:31:59.242Z,76.50
2023-03-02T00:34:26.051Z,76.70
2023-03-02T00:36:52.967Z,76.90
2023-03-02T00:39:20.261Z,76.70
2023-03-02T00:41:48.388Z,76.80
2023-03-02T00:44:17.688Z,77.00
2023-03-02T00:46:44.944Z,77.00
2023-03-02T00:49:12.435Z,77.20
2023-03-02T00:51:39.406Z,77.20
2023-03-02T00:54:06.305Z,77.20
2023-03-02T00:56:33.395Z,77.30
2023-03-02T00:59:11.244Z,77.50
2023-03-02T01:01:38.396Z,77.50
2023-03-02T01:04:05.386Z,77.60
2023-03-02T01:06:32.613Z,78.00
2023-03-02T01:08:59.779Z,77.90
2023-03-02T01:11:26.638Z,77.80
2023-03-02T01:13:53.549Z,78.40
2023-03-02T01:16:20.499Z,78.30
2023-03-02T01:18:47.386Z,78.50
2023-03-02T01:21:16.304Z,78.50
2023-03-02T01:54:41.464Z,80.40
2023-03-02T01:57:09.777Z,81.20
2023-03-02T01:59:39.639Z,81.30
2023-03-02T02:02:10.939Z,81.40
2023-03-02T02:04:41.270Z,81.80
2023-03-02T02:07:09.837Z,82.30
2023-03-02T02:09:44.426Z,82.50
2023-03-02T02:12:24.089Z,82.50
2023-03-02T02:14:51.421Z,82.90
2023-03-02T02:17:19.724Z,83.00
2023-03-02T02:20:10.986Z,83.40
2023-03-02T02:22:46.701Z,83.70
2023-03-02T02:25:45.274Z,83.90
2023-03-02T02:28:18.525Z,84.20
2023-03-02T02:30:48.126Z,84.40
2023-03-02T02:33:22.167Z,84.80
2023-03-02T02:35:51.388Z,84.90
2023-03-02T02:38:20.775Z,85.30
2023-03-02T02:40:58.355Z,85.60
2023-03-02T02:43:26.388Z,85.90
2023-03-02T02:45:55.764Z,85.60
2023-03-02T02:48:25.473Z,85.70
2023-03-02T02:51:00.354Z,86.40
2023-03-02T02:53:38.624Z,86.40
2023-03-02T02:56:08.208Z,87.00
2023-03-02T02:58:40.472Z,87.30
2023-03-02T03:01:08.353Z,87.50
2023-03-02T03:03:39.561Z,87.50
2023-03-02T03:06:09.118Z,87.10
2023-03-02T03:08:41.934Z,87.80
2023-03-02T03:11:10.178Z,88.50
2023-03-02T03:13:38.789Z,88.10
2023-03-02T03:16:07.866Z,88.30
2023-03-02T03:18:34.738Z,88.50
2023-03-02T03:21:01.527Z,89.30
2023-03-02T03:23:28.311Z,89.20
2023-03-02T03:25:55.062Z,89.40
2023-03-02T03:28:21.860Z,89.20
2023-03-02T03:30:48.925Z,89.90
2023-03-02T03:33:15.833Z,90.20
2023-03-02T03:35:42.656Z,90.20
2023-03-02T03:38:09.526Z,90.20
2023-03-02T03:40:36.348Z,90.30
2023-03-02T03:43:04.451Z,90.40
2023-03-02T03:45:31.333Z,90.10
2023-03-02T03:47:58.304Z,90.20
2023-03-02T03:50:25.785Z,90.30
2023-03-02T03:52:52.882Z,90.20
2023-03-02T03:55:20.118Z,90.30
2023-03-02T03:57:46.988Z,90.20
2023-03-02T04:00:17.095Z,90.70
2023-03-02T04:02:44.042Z,90.60
2023-03-02T04:05:11.806Z,90.80
2023-03-02T04:07:40.160Z,90.80
2023-03-02T04:10:08.578Z,90.90
2023-03-02T04:12:38.543Z,91.00
2023-03-02T04:15:07.420Z,90.90
2023-03-02T04:17:34.542Z,90.90
2023-03-02T04:20:01.602Z,91.10
2023-03-02T04:22:28.547Z,91.10
2023-03-02T04:24:55.441Z,91.10
2023-03-02T04:27:22.198Z,91.20
2023-03-02T04:29:49.025Z,91.70
2023-03-02T04:32:15.950Z,91.60
2023-03-02T04:34:42.847Z,91.80
2023-03-02T04:37:10.068Z,92.10
2023-03-02T04:39:36.939Z,92.10
2023-03-02T04:42:03.849Z,92.30
2023-03-02T04:44:30.783Z,92.40
2023-03-02T04:46:57.730Z,92.80
2023-03-02T04:49:24.899Z,93.20
2023-03-02T04:51:51.687Z,93.60
2023-03-02T04:54:25.403Z,93.60
2023-03-02T04:56:52.694Z,93.90
2023-03-02T04:59:24.073Z,93.80
2023-03-02T05:01:52.298Z,94.10
2023-03-02T05:04:19.425Z,94.20
2023-03-02T05:06:46.271Z,94.40
2023-03-02T05:09:13.256Z,94.60
2023-03-02T05:11:40.220Z,94.60
2023-03-02T05:14:09.755Z,94.70
2023-03-02T05:16:38.622Z,94.90
2023-03-02T05:19:08.786Z,95.20
2023-03-02T05:21:35.913Z,95.30
2023-03-02T05:24:03.423Z,95.80
2023-03-02T05:26:31.086Z,96.10
2023-03-02T05:28:58.222Z,96.60
2023-03-02T05:31:38.173Z,96.70
2023-03-02T05:34:07.407Z,96.60
2023-03-02T05:36:34.814Z,96.90
2023-03-02T05:39:02.251Z,96.80
2023-03-02T05:41:29.128Z,97.10
2023-03-02T05:43:56.132Z,97.50
2023-03-02T05:46:23.227Z,97.60
2023-03-02T05:48:50.014Z,97.50
2023-03-02T05:51:16.877Z,97.70
2023-03-02T05:53:44.008Z,97.90
2023-03-02T05:56:10.957Z,97.90
2023-03-02T05:58:37.944Z,98.10
2023-03-02T06:01:10.107Z,98.10
2023-03-02T06:03:37.076Z,98.20
2023-03-02T06:06:04.127Z,98.20
2023-03-02T06:08:31.709Z,98.10
2023-03-02T06:10:58.602Z,98.10
2023-03-02T06:13:25.635Z,97.80
2023-03-02T06:15:52.412Z,97.70
2023-03-02T06:18:23.504Z,97.80
2023-03-02T06:20:51.033Z,97.90
2023-03-02T06:23:17.860Z,97.70
2023-03-02T06:25:48.780Z,97.70
2023-03-02T06:28:16.515Z,97.90
2023-03-02T06:30:43.359Z,97.80
2023-03-02T06:33:11.255Z,97.90
2023-03-02T06:35:38.809Z,97.80
2023-03-02T06:38:05.794Z,97.70
2023-03-02T06:40:32.605Z,97.90
2023-03-02T06:43:01.731Z,97.80
2023-03-02T06:45:33.670Z,97.80
2023-03-02T06:48:01.402Z,97.70
2023-03-02T06:50:29.080Z,97.60
2023-03-02T06:52:56.687Z,97.10
2023-03-02T06:55:24.367Z,97.00
2023-03-02T06:57:51.657Z,97.10
2023-03-02T07:00:26.006Z,97.00
2023-03-02T07:02:54.314Z,96.70
2023-03-02T07:05:22.114Z,96.70
2023-03-02T07:07:49.051Z,96.70
2023-03-02T07:10:16.297Z,96.30
2023-03-02T07:12:43.492Z,96.30
2023-03-02T07:15:12.378Z,96.60
2023-03-02T07:17:40.700Z,96.40
2023-03-02T07:20:08.515Z,96.50
2023-03-02T07:22:35.521Z,96.60
2023-03-02T07:25:02.450Z,96.80
2023-03-02T07:27:29.725Z,96.50
2023-03-02T07:29:56.774Z,96.10
2023-03-02T07:32:23.751Z,96.00
2023-03-02T07:34:54.511Z,96.20
2023-03-02T07:37:21.431Z,95.90
2023-03-02T07:39:49.168Z,95.10
2023-03-02T07:42:17.387Z,94.90
2023-03-02T07:44:44.464Z,94.40
2023-03-02T07:47:11.348Z,94.20
2023-03-02T07:49:38.541Z,93.70
2023-03-02T07:52:08.510Z,93.50
2023-03-02T07:54:35.327Z,93.30
2023-03-02T07:57:02.506Z,92.40
2023-03-02T07:59:29.605Z,92.70
2023-03-02T08:01:58.879Z,92.70
2023-03-02T08:04:26.769Z,92.40
2023-03-02T08:06:53.876Z,91.90
2023-03-02T08:09:21.009Z,91.50
2023-03-02T08:11:48.245Z,91.50
2023-03-02T08:14:15.215Z,91.30
2023-03-02T08:16:42.385Z,91.00
2023-03-02T08:19:09.461Z,90.70
2023-03-02T08:21:38.863Z,90.50
2023-03-02T08:24:06.056Z,90.30
2023-03-02T08:26:33.172Z,90.30
2023-03-02T08:29:00.099Z,90.20
2023-03-02T08:31:27.300Z,90.20
2023-03-02T08:33:54.277Z,89.40
2023-03-02T08:36:21.880Z,88.50
2023-03-02T08:38:49.514Z,86.10
2023-03-02T08:41:19.879Z,83.90
2023-03-02T08:43:47.496Z,81.30
2023-03-02T08:46:17.902Z,80.00
2023-03-02T08:48:45.388Z,78.10
2023-03-02T08:51:15.491Z,77.50
2023-03-02T08:53:44.764Z,76.80
2023-03-02T08:56:26.860Z,75.30
2023-03-02T08:58:55.648Z,74.20
2023-03-02T09:01:25.966Z,73.60
2023-03-02T09:03:53.142Z,73.00
2023-03-02T09:06:20.632Z,73.00
2023-03-02T09:08:48.068Z,73.60
2023-03-02T09:11:15.928Z,70.50
2023-03-02T09:13:43.579Z,70.10
2023-03-02T09:16:11.433Z,70.40
2023-03-02T09:18:38.425Z,69.50
2023-03-02T09:21:07.928Z,69.90
2023-03-02T09:23:36.698Z,68.70
2023-03-02T09:26:04.220Z,68.10
2023-03-02T09:28:31.450Z,68.90
2023-03-02T09:31:01.169Z,68.40
2023-03-02T09:33:30.758Z,67.80
2023-03-02T09:36:08.426Z,67.40
2023-03-02T09:38:35.495Z,67.00
2023-03-02T09:41:20.936Z,66.80
2023-03-02T09:44:15.775Z,66.90
2023-03-02T09:47:00.264Z,67.40
2023-03-02T09:49:49.284Z,66.90
2023-03-02T09:52:36.143Z,66.60
2023-03-02T09:55:28.844Z,66.90
2023-03-02T09:57:56.185Z,66.90
2023-03-02T10:00:32.819Z,66.60
2023-03-02T10:03:16.775Z,66.60
2023-03-02T10:06:02.644Z,66.70
2023-03-02T10:08:36.497Z,66.90
2023-03-02T10:11:12.912Z,67.20
2023-03-02T10:13:47.648Z,67.40
2023-03-02T10:16:41.084Z,67.60
2023-03-02T10:19:19.269Z,67.50
2023-03-02T10:21:49.441Z,68.30
2023-03-02T10:24:44.078Z,68.20
2023-03-02T10:27:18.517Z,67.90
2023-03-02T10:30:06.611Z,68.60
2023-03-02T10:32:38.219Z,68.50
2023-03-02T10:35:16.509Z,68.30
2023-03-02T10:37:43.784Z,68.10
2023-03-02T10:40:33.643Z,68.20
2023-03-02T10:43:01.113Z,67.50
2023-03-02T10:45:30.989Z,67.00
2023-03-02T10:48:06.424Z,66.90
2023-03-02T10:50:34.133Z,66.80
2023-03-02T10:53:04.138Z,66.60
2023-03-02T10:55:33.900Z,66.20
2023-03-02T10:58:20.231Z,66.00
2023-03-02T11:01:15.344Z,65.70
2023-03-02T11:03:42.168Z,65.20
2023-03-02T11:06:20.264Z,65.10
2023-03-02T11:08:57.673Z,64.90
2023-03-02T11:11:25.891Z,64.40
2023-03-02T11:13:53.014Z,64.20
2023-03-02T11:16:19.935Z,64.10
2023-03-02T11:18:59.682Z,63.70
2023-03-02T11:21:44.657Z,63.60
2023-03-02T11:24:17.174Z,63.70
2023-03-02T11:27:22.749Z,63.60
2023-03-02T11:30:07.250Z,63.40
2023-03-02T11:32:59.619Z,63.10
2023-03-02T11:35:37.127Z,62.30
2023-03-02T11:38:40.993Z,62.50
2023-03-02T11:41:18.966Z,62.30
2023-03-02T11:43:45.738Z,61.80
2023-03-02T11:46:26.252Z,61.80
2023-03-02T11:48:56.177Z,62.10
2023-03-02T11:51:29.427Z,62.20
2023-03-02T11:54:18.916Z,62.20
2023-03-02T11:56:47.099Z,61.30
2023-03-02T11:59:19.712Z,61.60
2023-03-02T12:01:51.079Z,60.80
2023-03-02T12:04:34.142Z,60.80
2023-03-02T12:07:04.283Z,60.50
2023-03-02T12:09:35.285Z,60.40
2023-03-02T12:12:53.738Z,60.70
2023-03-02T12:15:34.217Z,60.80
2023-03-02T12:18:01.167Z,60.10
2023-03-02T12:20:30.289Z,59.80
2023-03-02T12:23:08.649Z,59.70
2023-03-02T12:25:44.026Z,59.50
2023-03-02T12:28:35.759Z,58.90
2023-03-02T12:31:06.390Z,58.70
2023-03-02T12:33:38.544Z,58.50
2023-03-02T12:36:13.988Z,58.30
2023-03-02T12:38:46.814Z,58.30
2023-03-02T12:41:25.606Z,58.00
2023-03-02T12:44:17.063Z,57.40
2023-03-02T12:46:49.128Z,56.70
2023-03-02T12:49:29.249Z,56.80
2023-03-02T12:52:01.468Z,56.00
2023-03-02T12:54:29.548Z,56.50
2023-03-02T12:57:15.713Z,55.70
2023-03-02T12:59:43.053Z,54.40
2023-03-02T13:02:18.060Z,54.90
2023-03-02T13:04:51.972Z,53.90
2023-03-02T13:07:23.371Z,53.50
2023-03-02T13:09:56.690Z,54.00
2023-03-02T13:12:27.018Z,53.90
2023-03-02T13:14:59.609Z,53.20
2023-03-02T13:17:32.549Z,52.40
2023-03-02T13:20:01.485Z,52.20
2023-03-02T13:22:28.759Z,52.00
2023-03-02T13:25:03.548Z,52.10
2023-03-02T13:27:31.359Z,52.00
2023-03-02T13:30:21.749Z,51.40
2023-03-02T13:32:48.546Z,50.90
2023-03-02T13:35:28.275Z,50.70
2023-03-02T13:38:00.700Z,49.60
2023-03-02T13:40:27.784Z,49.80
2023-03-02T13:42:55.177Z,49.90
2023-03-02T13:45:28.485Z,49.90
2023-03-02T13:47:56.953Z,49.70
2023-03-02T13:50:31.979Z,49.70
2023-03-02T13:53:04.372Z,49.60
2023-03-02T14:24:09.887Z,47.70
2023-03-02T14:31:04.234Z,47.60
2023-03-02T14:33:31.215Z,47.40
2023-03-02T14:35:58.964Z,46.90
2023-03-02T14:38:27.286Z,47.40
2023-03-02T14:40:54.436Z,47.10
2023-03-02T14:43:23.467Z,46.90
2023-03-02T14:45:50.350Z,47.50
2023-03-02T14:48:17.341Z,46.80
2023-03-02T14:50:47.265Z,46.90
2023-03-02T14:53:20.098Z,47.10
2023-03-02T14:55:47.368Z,46.60
2023-03-02T14:58:19.006Z,47.00
2023-03-02T15:00:48.051Z,46.60
2023-03-02T15:03:19.461Z,46.70
2023-03-02T15:06:00.335Z,46.90
2023-03-02T15:08:27.986Z,47.00
2023-03-02T15:10:54.866Z,46.80
2023-03-02T15:13:21.927Z,46.70
2023-03-02T15:15:50.150Z,46.40
2023-03-02T15:18:19.964Z,47.00
2023-03-02T15:20:47.258Z,47.20
2023-03-02T15:44:21.976Z,47.40
2023-03-02T15:46:51.828Z,47.30
2023-03-02T15:49:22.798Z,47.80
2023-03-02T15:51:52.060Z,47.80
2023-03-02T15:54:19.361Z,48.00
2023-03-02T15:56:51.868Z,48.30
2023-03-02T15:59:20.376Z,48.80
2023-03-02T16:01:47.360Z,48.90
2023-03-02T16:04:14.565Z,48.80
2023-03-02T16:06:44.062Z,48.90
2023-03-02T16:09:11.210Z,49.30
2023-03-02T16:11:38.171Z,49.00
2023-03-02T16:14:05.227Z,49.60
2023-03-02T16:16:32.351Z,49.70
2023-03-02T16:19:00.896Z,49.50
2023-03-02T16:21:31.525Z,50.00
2023-03-02T16:24:03.840Z,50.40
2023-03-02T16:26:33.042Z,50.80
2023-03-02T16:29:00.927Z,50.70
2023-03-02T16:31:28.539Z,51.10
2023-03-02T16:33:57.651Z,51.20
2023-03-02T16:36:25.210Z,51.80
2023-03-02T16:38:52.271Z,52.10
2023-03-02T16:41:22.123Z,52.80
2023-03-02T16:43:51.590Z,52.40
2023-03-02T16:46:19.684Z,53.90
2023-03-02T16:48:49.520Z,53.30
2023-03-02T16:51:18.190Z,53.60
2023-03-02T16:53:45.649Z,53.90
2023-03-02T16:56:13.370Z,54.20
2023-03-02T16:58:42.533Z,54.90
2023-03-02T17:01:17.124Z,54.60
2023-03-02T17:03:44.663Z,54.90
2023-03-02T17:06:15.052Z,54.80
2023-03-02T17:08:42.322Z,55.00
2023-03-02T17:11:09.305Z,55.30
2023-03-02T17:13:36.875Z,55.50
2023-03-02T17:16:04.189Z,55.50
2023-03-02T17:18:31.240Z,55.70
2023-03-02T17:20:59.128Z,57.00
2023-03-02T17:23:27.539Z,56.30
2023-03-02T17:25:55.684Z,56.60
2023-03-02T17:28:22.995Z,56.50
2023-03-02T17:30:50.136Z,57.30
2023-03-02T17:33:18.397Z,57.20
2023-03-02T17:35:46.372Z,57.70
2023-03-02T17:38:14.534Z,57.40
2023-03-02T17:40:42.415Z,58.10
2023-03-02T17:43:09.913Z,57.60
2023-03-02T17:45:36.847Z,58.30
2023-03-02T17:48:04.127Z,58.00
2023-03-02T17:50:32.507Z,58.60
2023-03-02T17:53:00.019Z,58.30
2023-03-02T17:55:27.142Z,58.60
2023-03-02T17:57:54.347Z,58.70
2023-03-02T18:00:22.620Z,58.60
2023-03-02T18:02:49.894Z,58.60
2023-03-02T18:05:16.960Z,58.80
2023-03-02T18:07:44.157Z,59.00
2023-03-02T18:10:11.976Z,59.10
2023-03-02T18:12:39.002Z,59.20
2023-03-02T18:15:06.640Z,59.00
2023-03-02T18:17:33.543Z,59.60
2023-03-02T18:20:00.432Z,59.60
2023-03-02T18:22:27.457Z,59.70
2023-03-02T18:25:20.143Z,60.00
2023-03-02T18:31:42.586Z,58.70
2023-03-02T18:34:09.601Z,58.40
2023-03-02T18:36:36.582Z,58.30
2023-03-02T18:39:04.185Z,58.50
2023-03-02T18:41:32.460Z,58.60
2023-03-02T18:44:01.500Z,58.50
2023-03-02T18:46:47.279Z,58.50
2023-03-02T18:49:14.338Z,57.90
2023-03-02T18:51:41.718Z,58.30
2023-03-02T18:54:08.700Z,58.60
2023-03-02T18:56:35.656Z,59.00
2023-03-02T18:59:05.759Z,59.10
2023-03-02T19:01:32.962Z,58.40
2023-03-02T19:04:02.198Z,59.10
2023-03-02T19:06:29.280Z,58.70
2023-03-02T19:08:56.161Z,58.50
2023-03-02T19:11:23.398Z,58.70
2023-03-02T19:13:50.241Z,58.40
2023-03-02T19:16:18.498Z,58.40
2023-03-02T19:18:45.594Z,57.80
2023-03-02T19:21:12.618Z,57.90
2023-03-02T19:23:39.921Z,57.80
2023-03-02T19:26:08.502Z,57.80
2023-03-02T19:28:37.390Z,57.90
2023-03-02T19:31:08.894Z,58.10
2023-03-02T19:33:35.811Z,58.30
2023-03-02T19:36:02.941Z,57.80
2023-03-02T19:38:29.965Z,58.90
2023-03-02T19:40:58.363Z,58.50
2023-03-02T19:43:26.456Z,59.00
2023-03-02T19:45:53.580Z,59.60
2023-03-02T19:48:20.869Z,58.30
2023-03-02T19:50:47.938Z,59.50
2023-03-02T19:53:17.336Z,58.80
2023-03-02T19:55:45.124Z,59.60
2023-03-02T19:58:17.596Z,59.60
2023-03-02T20:00:45.406Z,59.70
2023-03-02T20:03:13.494Z,60.30
2023-03-02T20:05:40.428Z,60.60
2023-03-02T20:08:08.447Z,60.60
2023-03-02T20:10:39.087Z,60.90
2023-03-02T20:13:06.942Z,61.10
2023-03-02T20:15:38.196Z,61.00
2023-03-02T20:18:07.555Z,61.40
2023-03-02T20:20:34.771Z,61.40
2023-03-02T20:23:02.128Z,62.10
2023-03-02T20:25:29.526Z,61.80
2023-03-02T20:27:59.630Z,61.80
2023-03-02T20:30:29.275Z,62.20
2023-03-02T20:32:57.338Z,62.00
2023-03-02T20:35:25.816Z,62.20
2023-03-02T20:37:55.570Z,62.20
2023-03-02T20:40:24.180Z,62.20
2023-03-02T20:42:51.172Z,62.50
2023-03-02T20:45:18.745Z,62.30
2023-03-02T20:47:45.790Z,62.00
2023-03-02T20:50:20.009Z,62.20
2023-03-02T20:52:46.747Z,62.70
2023-03-02T20:55:13.705Z,61.60
2023-03-02T20:57:40.935Z,62.20
2023-03-02T21:00:11.790Z,62.30
2023-03-02T21:02:38.779Z,62.20
2023-03-02T21:05:06.528Z,62.70
2023-03-02T21:07:35.874Z,62.60
2023-03-02T21:10:05.470Z,63.20
2023-03-02T21:12:33.386Z,63.90
2023-03-02T21:15:02.235Z,63.50
2023-03-02T21:17:30.896Z,63.50
2023-03-02T21:19:58.430Z,63.40
2023-03-02T21:22:25.712Z,63.90
2023-03-02T21:24:55.374Z,63.70
2023-03-02T21:27:22.338Z,64.20
2023-03-02T21:29:49.351Z,63.80
2023-03-02T21:32:16.337Z,63.70
2023-03-02T21:34:45.049Z,64.20
2023-03-02T21:37:11.936Z,64.60
2023-03-02T21:39:38.897Z,64.40
2023-03-02T21:42:05.874Z,64.40
2023-03-02T21:44:32.671Z,64.50
2023-03-02T21:46:59.539Z,64.50
2023-03-02T21:49:26.419Z,64.80
2023-03-02T21:51:53.397Z,64.20
2023-03-02T21:54:20.271Z,64.30
2023-03-02T21:56:47.356Z,64.80
2023-03-02T21:59:14.252Z,63.80
2023-03-02T22:01:41.592Z,63.60
2023-03-02T22:04:08.505Z,63.90
2023-03-02T22:06:35.532Z,64.10
2023-03-02T22:09:03.795Z,64.30
2023-03-02T22:11:36.661Z,64.80
2023-03-02T22:14:15.521Z,65.00
2023-03-02T22:16:46.732Z,65.10
2023-03-02T22:19:32.367Z,65.00
2023-03-02T22:22:00.969Z,64.50
2023-03-02T22:24:30.285Z,64.50
2023-03-02T22:27:00.071Z,64.60
2023-03-02T22:29:32.088Z,65.10
2023-03-02T22:32:14.105Z,65.20
2023-03-02T22:34:43.195Z,65.20
2023-03-02T22:37:13.346Z,65.00
2023-03-02T22:39:42.135Z,65.10
2023-03-02T22:42:20.073Z,65.50
2023-03-02T22:44:59.188Z,65.20
2023-03-02T22:47:27.085Z,65.20
2023-03-02T22:50:12.992Z,65.10
2023-03-02T22:52:42.036Z,65.90
2023-03-02T22:55:44.737Z,65.80
2023-03-02T22:58:45.701Z,65.70
2023-03-02T23:01:45.132Z,66.00
2023-03-02T23:04:25.623Z,66.00
2023-03-02T23:06:57.629Z,66.50
2023-03-02T23:09:27.296Z,66.10
2023-03-02T23:12:20.313Z,66.50
2023-03-02T23:14:57.431Z,66.60
2023-03-02T23:17:40.648Z,67.10
2023-03-02T23:20:11.453Z,67.10
2023-03-02T23:22:39.260Z,67.60
2023-03-02T23:25:08.984Z,67.30
2023-03-02T23:27:36.066Z,66.70
2023-03-02T23:30:04.221Z,66.90
2023-03-02T23:32:31.162Z,66.90
2023-03-02T23:34:58.163Z,67.20
2023-03-02T23:37:25.039Z,67.30
2023-03-02T23:39:52.592Z,67.30
2023-03-02T23:42:19.738Z,67.50
2023-03-02T23:44:46.613Z,67.80
2023-03-02T23:47:13.837Z,66.90
2023-03-02T23:49:41.023Z,66.70
2023-03-02T23:52:08.019Z,67.30
